Time,TemperatureF,DewpointF,PressureIn,WindDirection,WindDirectionDegrees,WindSpeedMPH,WindSpeedGustMPH,Humidity,HourlyPrecipIn,Conditions,Clouds,dailyrainin,SolarRadiationWatts/m^2,SoftwareType,DateUTC
2013-01-22 00:02:00,-13.0,-23.0,-100.00,West,281,4.0,10.0,59,0.00,,,0.00,0.000000,,2013-01-22 06:02:00,
2013-01-22 00:12:00,-14.0,-23.0,-100.00,WNW,291,4.0,7.0,62,0.00,,,0.00,0.000000,,2013-01-22 06:12:00,
2013-01-22 00:33:00,-14.0,-23.0,-100.00,WNW,291,4.0,7.0,62,0.00,,,0.00,0.000000,,2013-01-22 06:33:00,
2013-01-22 00:43:00,-14.0,-23.0,-100.00,WNW,291,4.0,7.0,62,0.00,,,0.00,0.000000,,2013-01-22 06:43:00,
2013-01-22 00:53:00,-14.0,-23.0,-100.00,WNW,291,4.0,7.0,62,0.00,,,0.00,0.000000,,2013-01-22 06:53:00,
2013-01-22 01:02:00,-14.0,-23.0,-100.00,WNW,291,4.0,7.0,62,0.00,,,0.00,0.000000,,2013-01-22 07:02:00,
2013-01-22 01:12:00,-14.0,-23.0,-100.00,WNW,297,3.0,8.0,64,0.00,,,0.00,0.000000,,2013-01-22 07:12:00,
2013-01-22 01:33:00,-14.0,-23.0,-100.00,WNW,297,3.0,8.0,64,0.00,,,0.00,0.000000,,2013-01-22 07:33:00,
2013-01-22 01:43:00,-14.0,-23.0,-100.00,WNW,297,3.0,8.0,64,0.00,,,0.00,0.000000,,2013-01-22 07:43:00,
2013-01-22 01:53:00,-14.0,-23.0,-100.00,WNW,297,3.0,8.0,64,0.00,,,0.00,0.000000,,2013-01-22 07:53:00,
2013-01-22 02:02:00,-14.0,-23.0,-100.00,WNW,297,3.0,8.0,64,0.00,,,0.00,0.000000,,2013-01-22 08:02:00,
2013-01-22 02:12:00,-16.0,-24.0,-100.00,West,268,2.0,5.0,66,0.00,,,0.00,0.000000,,2013-01-22 08:12:00,
2013-01-22 02:33:00,-16.0,-24.0,-100.00,West,268,2.0,5.0,66,0.00,,,0.00,0.000000,,2013-01-22 08:33:00,
2013-01-22 02:43:00,-16.0,-24.0,-100.00,West,268,2.0,5.0,66,0.00,,,0.00,0.000000,,2013-01-22 08:43:00,
2013-01-22 02:53:00,-16.0,-24.0,-100.00,West,268,2.0,5.0,66,0.00,,,0.00,0.000000,,2013-01-22 08:53:00,
2013-01-22 03:02:00,-16.0,-24.0,-100.00,West,268,2.0,5.0,66,0.00,,,0.00,0.000000,,2013-01-22 09:02:00,
2013-01-22 03:12:00,-17.0,-25.0,-100.00,WNW,292,2.0,5.0,65,0.00,,,0.00,0.000000,,2013-01-22 09:12:00,
2013-01-22 03:33:00,-17.0,-25.0,-100.00,WNW,292,2.0,5.0,65,0.00,,,0.00,0.000000,,2013-01-22 09:33:00,
2013-01-22 03:43:00,-17.0,-25.0,-100.00,WNW,292,2.0,5.0,65,0.00,,,0.00,0.000000,,2013-01-22 09:43:00,
2013-01-22 03:52:00,-17.0,-25.0,-100.00,WNW,292,2.0,5.0,65,0.00,,,0.00,0.000000,,2013-01-22 09:52:00,
2013-01-22 04:02:00,-17.0,-25.0,-100.00,WNW,292,2.0,5.0,65,0.00,,,0.00,0.000000,,2013-01-22 10:02:00,
2013-01-22 04:12:00,-17.0,-25.0,-100.00,WNW,300,2.0,4.0,65,0.00,,,0.00,0.000000,,2013-01-22 10:12:00,
2013-01-22 04:33:00,-17.0,-25.0,-100.00,WNW,300,2.0,4.0,65,0.00,,,0.00,0.000000,,2013-01-22 10:33:00,
2013-01-22 04:43:00,-17.0,-25.0,-100.00,WNW,300,2.0,4.0,65,0.00,,,0.00,0.000000,,2013-01-22 10:43:00,
2013-01-22 04:52:00,-17.0,-25.0,-100.00,WNW,300,2.0,4.0,65,0.00,,,0.00,0.000000,,2013-01-22 10:52:00,
2013-01-22 05:02:00,-17.0,-25.0,-100.00,WNW,300,2.0,4.0,65,0.00,,,0.00,0.000000,,2013-01-22 11:02:00,
2013-01-22 05:12:00,-17.0,-26.0,-100.00,WNW,287,4.0,6.0,63,0.00,,,-99.99,0.000000,,2013-01-22 11:12:00,
2013-01-22 05:33:00,-17.0,-26.0,-100.00,WNW,287,4.0,6.0,63,0.00,,,-99.99,0.000000,,2013-01-22 11:33:00,
2013-01-22 05:43:00,-17.0,-26.0,-100.00,WNW,287,4.0,6.0,63,0.00,,,-99.99,0.000000,,2013-01-22 11:43:00,
2013-01-22 05:53:00,-17.0,-26.0,-100.00,WNW,287,4.0,6.0,63,0.00,,,-99.99,0.000000,,2013-01-22 11:53:00,
2013-01-22 06:03:00,-17.0,-26.0,-100.00,WNW,287,4.0,6.0,63,0.00,,,-99.99,0.000000,,2013-01-22 12:03:00,
2013-01-22 06:12:00,-17.0,-26.0,-100.00,WNW,297,3.0,8.0,62,0.00,,,0.00,0.000000,,2013-01-22 12:12:00,
2013-01-22 06:33:00,-17.0,-26.0,-100.00,WNW,297,3.0,8.0,62,0.00,,,0.00,0.000000,,2013-01-22 12:33:00,
2013-01-22 06:43:00,-17.0,-26.0,-100.00,WNW,297,3.0,8.0,62,0.00,,,0.00,0.000000,,2013-01-22 12:43:00,
2013-01-22 06:53:00,-17.0,-26.0,-100.00,WNW,297,3.0,8.0,62,0.00,,,0.00,0.000000,,2013-01-22 12:53:00,
2013-01-22 07:03:00,-17.0,-26.0,-100.00,WNW,297,3.0,8.0,62,0.00,,,0.00,0.000000,,2013-01-22 13:03:00,
2013-01-22 07:12:00,-18.0,-27.0,-100.00,WNW,287,4.0,5.0,62,0.00,,,0.00,0.000000,,2013-01-22 13:12:00,
2013-01-22 07:34:00,-18.0,-27.0,-100.00,WNW,287,4.0,5.0,62,0.00,,,0.00,0.000000,,2013-01-22 13:34:00,
2013-01-22 07:43:00,-18.0,-27.0,-100.00,WNW,287,4.0,5.0,62,0.00,,,0.00,0.000000,,2013-01-22 13:43:00,
2013-01-22 07:53:00,-18.0,-27.0,-100.00,WNW,287,4.0,5.0,62,0.00,,,0.00,0.000000,,2013-01-22 13:53:00,
2013-01-22 08:03:00,-18.0,-27.0,-100.00,WNW,287,4.0,5.0,62,0.00,,,0.00,0.000000,,2013-01-22 14:03:00,
2013-01-22 08:12:00,-14.0,-24.0,-100.00,WNW,288,3.0,6.0,61,0.00,,,0.00,26.000000,,2013-01-22 14:12:00,
2013-01-22 08:34:00,-14.0,-24.0,-100.00,WNW,288,3.0,6.0,61,0.00,,,0.00,26.000000,,2013-01-22 14:34:00,
2013-01-22 08:44:00,-14.0,-24.0,-100.00,WNW,288,3.0,6.0,61,0.00,,,0.00,26.000000,,2013-01-22 14:44:00,
2013-01-22 08:54:00,-14.0,-24.0,-100.00,WNW,288,3.0,6.0,61,0.00,,,0.00,26.000000,,2013-01-22 14:54:00,
2013-01-22 09:03:00,-14.0,-24.0,-100.00,WNW,288,3.0,6.0,61,0.00,,,0.00,26.000000,,2013-01-22 15:03:00,
2013-01-22 09:12:00,-8.0,-21.0,-100.00,NW,307,6.0,12.0,53,0.00,,,0.00,164.000000,,2013-01-22 15:12:00,
2013-01-22 09:44:00,-8.0,-21.0,-100.00,NW,307,6.0,12.0,53,0.00,,,0.00,164.000000,,2013-01-22 15:44:00,
2013-01-22 09:53:00,-8.0,-21.0,-100.00,NW,307,6.0,12.0,53,0.00,,,0.00,164.000000,,2013-01-22 15:53:00,
2013-01-22 10:03:00,-8.0,-21.0,-100.00,NW,307,6.0,12.0,53,0.00,,,0.00,164.000000,,2013-01-22 16:03:00,
2013-01-22 10:12:00,-3.0,-19.0,-100.00,WNW,292,7.0,14.0,45,0.00,,,0.00,295.000000,,2013-01-22 16:12:00,
2013-01-22 10:43:00,-3.0,-19.0,-100.00,WNW,292,7.0,14.0,45,0.00,,,0.00,295.000000,,2013-01-22 16:43:00,
2013-01-22 10:54:00,-3.0,-19.0,-100.00,WNW,292,7.0,14.0,45,0.00,,,0.00,295.000000,,2013-01-22 16:54:00,
2013-01-22 11:03:00,-3.0,-19.0,-100.00,WNW,292,7.0,14.0,45,0.00,,,0.00,295.000000,,2013-01-22 17:03:00,
2013-01-22 11:12:00,3.0,-17.0,-100.00,NNW,328,7.0,13.0,38,0.00,,,0.00,395.000000,,2013-01-22 17:12:00,
2013-01-22 11:35:00,3.0,-17.0,-100.00,NNW,328,7.0,13.0,38,0.00,,,0.00,395.000000,,2013-01-22 17:35:00,
2013-01-22 11:44:00,3.0,-17.0,-100.00,NNW,328,7.0,13.0,38,0.00,,,0.00,395.000000,,2013-01-22 17:44:00,
2013-01-22 11:54:00,3.0,-17.0,-100.00,NNW,328,7.0,13.0,38,0.00,,,0.00,395.000000,,2013-01-22 17:54:00,
2013-01-22 12:03:00,3.0,-17.0,-100.00,NNW,328,7.0,13.0,38,0.00,,,0.00,395.000000,,2013-01-22 18:03:00,
2013-01-22 12:12:00,3.0,-18.0,-100.00,NW,315,7.0,16.0,35,0.00,,,0.00,342.000000,,2013-01-22 18:12:00,
2013-01-22 12:34:00,3.0,-18.0,-100.00,NW,315,7.0,16.0,35,0.00,,,0.00,342.000000,,2013-01-22 18:34:00,
2013-01-22 12:44:00,3.0,-18.0,-100.00,NW,315,7.0,16.0,35,0.00,,,0.00,342.000000,,2013-01-22 18:44:00,
2013-01-22 12:54:00,3.0,-18.0,-100.00,NW,315,7.0,16.0,35,0.00,,,0.00,342.000000,,2013-01-22 18:54:00,
2013-01-22 13:03:00,3.0,-18.0,-100.00,NW,315,7.0,16.0,35,0.00,,,0.00,342.000000,,2013-01-22 19:03:00,
2013-01-22 13:12:00,3.0,-19.0,-100.00,NW,309,9.0,17.0,34,0.00,,,0.00,405.000000,,2013-01-22 19:12:00,
2013-01-22 13:34:00,3.0,-19.0,-100.00,NW,309,9.0,17.0,34,0.00,,,0.00,405.000000,,2013-01-22 19:34:00,
2013-01-22 13:43:00,3.0,-19.0,-100.00,NW,309,9.0,17.0,34,0.00,,,0.00,405.000000,,2013-01-22 19:43:00,
2013-01-22 13:54:00,3.0,-19.0,-100.00,NW,309,9.0,17.0,34,0.00,,,0.00,405.000000,,2013-01-22 19:54:00,
2013-01-22 14:03:00,3.0,-19.0,-100.00,NW,309,9.0,17.0,34,0.00,,,0.00,405.000000,,2013-01-22 20:03:00,
2013-01-22 14:12:00,4.0,-18.0,-100.00,WNW,297,7.0,16.0,34,0.00,,,-99.99,352.000000,,2013-01-22 20:12:00,
2013-01-22 14:34:00,4.0,-18.0,-100.00,WNW,297,7.0,16.0,34,0.00,,,-99.99,352.000000,,2013-01-22 20:34:00,
2013-01-22 14:43:00,4.0,-18.0,-100.00,WNW,297,7.0,16.0,34,0.00,,,-99.99,352.000000,,2013-01-22 20:43:00,
2013-01-22 14:53:00,4.0,-18.0,-100.00,WNW,297,7.0,16.0,34,0.00,,,-99.99,352.000000,,2013-01-22 20:53:00,
2013-01-22 15:03:00,4.0,-18.0,-100.00,WNW,297,7.0,16.0,34,0.00,,,-99.99,352.000000,,2013-01-22 21:03:00,
2013-01-22 15:12:00,4.0,-16.0,-100.00,NW,313,6.0,17.0,37,0.00,,,0.00,238.000000,,2013-01-22 21:12:00,
2013-01-22 15:43:00,4.0,-16.0,-100.00,NW,313,6.0,17.0,37,0.00,,,0.00,238.000000,,2013-01-22 21:43:00,
2013-01-22 15:53:00,4.0,-16.0,-100.00,NW,313,6.0,17.0,37,0.00,,,0.00,238.000000,,2013-01-22 21:53:00,
2013-01-22 16:03:00,4.0,-16.0,-100.00,NW,313,6.0,17.0,37,0.00,,,0.00,238.000000,,2013-01-22 22:03:00,
2013-01-22 16:12:00,1.0,-17.0,-100.00,WNW,297,4.0,13.0,42,0.00,,,0.00,99.000000,,2013-01-22 22:12:00,
2013-01-22 16:43:00,1.0,-17.0,-100.00,WNW,297,4.0,13.0,42,0.00,,,0.00,99.000000,,2013-01-22 22:43:00,
2013-01-22 16:53:00,1.0,-17.0,-100.00,WNW,297,4.0,13.0,42,0.00,,,0.00,99.000000,,2013-01-22 22:53:00,
2013-01-22 17:03:00,1.0,-17.0,-100.00,WNW,297,4.0,13.0,42,0.00,,,0.00,99.000000,,2013-01-22 23:03:00,
2013-01-22 17:12:00,-1.0,-17.0,-100.00,WNW,284,4.0,10.0,46,0.00,,,0.00,12.000000,,2013-01-22 23:12:00,
2013-01-22 17:33:00,-1.0,-17.0,-100.00,WNW,284,4.0,10.0,46,0.00,,,0.00,12.000000,,2013-01-22 23:33:00,
2013-01-22 17:43:00,-1.0,-17.0,-100.00,WNW,284,4.0,10.0,46,0.00,,,0.00,12.000000,,2013-01-22 23:43:00,
2013-01-22 17:53:00,-1.0,-17.0,-100.00,WNW,284,4.0,10.0,46,0.00,,,0.00,12.000000,,2013-01-22 23:53:00,
2013-01-22 18:03:00,-1.0,-17.0,-100.00,WNW,284,4.0,10.0,46,0.00,,,0.00,12.000000,,2013-01-23 00:03:00,
2013-01-22 18:12:00,-3.0,-17.0,-100.00,WSW,243,2.0,5.0,51,0.00,,,0.00,0.000000,,2013-01-23 00:12:00,
2013-01-22 18:43:00,-3.0,-17.0,-100.00,WSW,243,2.0,5.0,51,0.00,,,0.00,0.000000,,2013-01-23 00:43:00,
2013-01-22 18:52:00,-3.0,-17.0,-100.00,WSW,243,2.0,5.0,51,0.00,,,0.00,0.000000,,2013-01-23 00:52:00,
2013-01-22 19:03:00,-3.0,-17.0,-100.00,WSW,243,2.0,5.0,51,0.00,,,0.00,0.000000,,2013-01-23 01:03:00,
2013-01-22 19:12:00,-8.0,-19.0,-100.00,SW,226,2.0,3.0,58,0.00,,,-99.99,0.000000,,2013-01-23 01:12:00,
2013-01-22 19:33:00,-8.0,-19.0,-100.00,SW,226,2.0,3.0,58,0.00,,,-99.99,0.000000,,2013-01-23 01:33:00,
2013-01-22 19:43:00,-8.0,-19.0,-100.00,SW,226,2.0,3.0,58,0.00,,,-99.99,0.000000,,2013-01-23 01:43:00,
2013-01-22 19:53:00,-8.0,-19.0,-100.00,SW,226,2.0,3.0,58,0.00,,,-99.99,0.000000,,2013-01-23 01:53:00,
2013-01-22 20:03:00,-8.0,-19.0,-100.00,SW,226,2.0,3.0,58,0.00,,,-99.99,0.000000,,2013-01-23 02:03:00,
2013-01-22 20:12:00,-11.0,-20.0,-100.00,WSW,258,2.0,4.0,64,0.00,,,0.00,0.000000,,2013-01-23 02:12:00,
2013-01-22 20:43:00,-11.0,-20.0,-100.00,WSW,258,2.0,4.0,64,0.00,,,0.00,0.000000,,2013-01-23 02:43:00,
2013-01-22 20:53:00,-11.0,-20.0,-100.00,WSW,258,2.0,4.0,64,0.00,,,0.00,0.000000,,2013-01-23 02:53:00,
2013-01-22 21:03:00,-11.0,-20.0,-100.00,WSW,258,2.0,4.0,64,0.00,,,0.00,0.000000,,2013-01-23 03:03:00,
2013-01-22 21:12:00,-8.0,-19.0,-100.00,WSW,254,3.0,5.0,58,0.00,,,0.00,0.000000,,2013-01-23 03:12:00,
2013-01-22 21:33:00,-8.0,-19.0,-100.00,WSW,254,3.0,5.0,58,0.00,,,0.00,0.000000,,2013-01-23 03:33:00,
2013-01-22 21:43:00,-8.0,-19.0,-100.00,WSW,254,3.0,5.0,58,0.00,,,0.00,0.000000,,2013-01-23 03:43:00,
2013-01-22 21:53:00,-8.0,-19.0,-100.00,WSW,254,3.0,5.0,58,0.00,,,0.00,0.000000,,2013-01-23 03:53:00,
2013-01-22 22:03:00,-8.0,-19.0,-100.00,WSW,254,3.0,5.0,58,0.00,,,0.00,0.000000,,2013-01-23 04:03:00,
2013-01-22 22:12:00,-7.0,-18.0,-100.00,WSW,244,4.0,6.0,57,0.00,,,0.00,0.000000,,2013-01-23 04:12:00,
2013-01-22 22:33:00,-7.0,-18.0,-100.00,WSW,244,4.0,6.0,57,0.00,,,0.00,0.000000,,2013-01-23 04:33:00,
2013-01-22 22:43:00,-7.0,-18.0,-100.00,WSW,244,4.0,6.0,57,0.00,,,0.00,0.000000,,2013-01-23 04:43:00,
2013-01-22 22:53:00,-7.0,-18.0,-100.00,WSW,244,4.0,6.0,57,0.00,,,0.00,0.000000,,2013-01-23 04:53:00,
2013-01-22 23:03:00,-7.0,-18.0,-100.00,WSW,244,4.0,6.0,57,0.00,,,0.00,0.000000,,2013-01-23 05:03:00,
2013-01-22 23:12:00,-7.0,-19.0,-100.00,WSW,244,4.0,8.0,56,0.00,,,0.00,0.000000,,2013-01-23 05:12:00,
2013-01-22 23:33:00,-7.0,-19.0,-100.00,WSW,244,4.0,8.0,56,0.00,,,0.00,0.000000,,2013-01-23 05:33:00,
2013-01-22 23:43:00,-7.0,-19.0,-100.00,WSW,244,4.0,8.0,56,0.00,,,0.00,0.000000,,2013-01-23 05:43:00,
2013-01-22 23:53:00,-7.0,-19.0,-100.00,WSW,244,4.0,8.0,56,0.00,,,0.00,0.000000,,2013-01-23 05:53:00,